Time;durP1;ratioP1;P1;durP2;ratioP2;P2;SDS_P1;SDS_P2;PMS_P1;PMS_P2;Temp;Humidity;BMP_temperature;BMP_pressure;BME280_temperature;BME280_humidity;BME280_pressure;Samples;Min_cycle;Max_cycle;Signal;HPM_P1;HPM_P2
2022/12/06 00:00:56;;;;;;;2.70;2.03;;;4.50;99.90;;;;;;5051740;28;20051;-67
2022/12/06 00:03:21;;;;;;;2.75;2.08;;;4.50;99.90;;;;;;5052647;28;20021;-66
2022/12/06 00:05:47;;;;;;;2.60;2.00;;;4.40;99.90;;;;;;5051932;28;20055;-67
2022/12/06 00:08:13;;;;;;;4.50;2.17;;;4.50;99.90;;;;;;5052437;28;20048;-67
2022/12/06 00:10:38;;;;;;;3.45;2.05;;;4.40;99.90;;;;;;5052202;28;20070;-67
2022/12/06 00:13:04;;;;;;;3.83;2.15;;;4.40;99.90;;;;;;5053069;28;20374;-69
2022/12/06 00:15:33;;;;;;;3.90;1.55;;;4.30;99.90;;;;;;5053104;28;20047;-69
2022/12/06 00:17:59;;;;;;;2.40;1.45;;;4.30;99.90;;;;;;5052975;28;20476;-69
2022/12/06 00:20:24;;;;;;;1.95;1.30;;;4.30;99.90;;;;;;5052599;28;20029;-68
2022/12/06 00:22:50;;;;;;;3.00;1.60;;;4.30;99.90;;;;;;5050716;28;20025;-68
2022/12/06 00:25:15;;;;;;;1.95;1.40;;;4.30;99.90;;;;;;5052407;28;20032;-69
2022/12/06 00:27:41;;;;;;;2.40;1.45;;;4.30;99.90;;;;;;5052194;28;20108;-68
2022/12/06 00:30:07;;;;;;;2.15;1.20;;;4.30;99.90;;;;;;5052256;28;20112;-68
2022/12/06 00:32:33;;;;;;;1.88;1.40;;;4.30;99.90;;;;;;5052135;28;20051;-68
2022/12/06 00:34:58;;;;;;;1.48;1.10;;;4.30;99.90;;;;;;5052204;28;20025;-68
2022/12/06 00:37:24;;;;;;;2.13;1.17;;;4.30;99.90;;;;;;5052441;28;20073;-68
2022/12/06 00:39:50;;;;;;;1.80;1.23;;;4.20;99.90;;;;;;5051927;28;20021;-68
2022/12/06 00:42:15;;;;;;;3.58;1.23;;;4.20;99.90;;;;;;5052054;28;20032;-69
2022/12/06 00:44:41;;;;;;;1.58;1.00;;;4.10;99.90;;;;;;5052359;28;20025;-68
2022/12/06 00:47:06;;;;;;;1.50;1.10;;;4.10;99.90;;;;;;5051816;28;20445;-68
2022/12/06 00:49:32;;;;;;;1.38;0.95;;;4.10;99.90;;;;;;5051572;28;20116;-69
2022/12/06 00:51:58;;;;;;;0.93;0.80;;;4.10;99.90;;;;;;5051794;28;20025;-67
2022/12/06 00:54:23;;;;;;;1.52;1.00;;;4.10;99.90;;;;;;5052210;28;20424;-67
2022/12/06 00:56:49;;;;;;;1.23;1.10;;;4.10;99.90;;;;;;5051816;28;20661;-67
2022/12/06 00:59:15;;;;;;;2.38;1.10;;;4.10;99.90;;;;;;5051731;28;20033;-67
2022/12/06 01:01:40;;;;;;;2.30;1.20;;;4.10;99.90;;;;;;5056154;28;20029;-67
2022/12/06 01:04:06;;;;;;;1.20;0.80;;;4.10;99.90;;;;;;5054720;28;20029;-67
2022/12/06 01:06:34;;;;;;;2.38;1.00;;;4.10;99.90;;;;;;5055577;28;20386;-67
2022/12/06 01:09:04;;;;;;;1.30;0.90;;;4.10;99.90;;;;;;5055636;28;20029;-69
2022/12/06 01:11:29;;;;;;;0.70;0.60;;;4.10;99.90;;;;;;5056084;28;20347;-68
2022/12/06 01:13:56;;;;;;;0.80;0.70;;;4.10;99.90;;;;;;5055631;28;20021;-68
2022/12/06 01:16:26;;;;;;;1.25;0.63;;;4.10;99.90;;;;;;5056054;28;20036;-69
2022/12/06 01:18:54;;;;;;;1.20;0.82;;;4.10;99.90;;;;;;5055656;28;20029;-67
2022/12/06 01:21:21;;;;;;;0.70;0.70;;;4.10;99.90;;;;;;5055656;28;20036;-67
2022/12/06 01:23:47;;;;;;;1.02;0.70;;;4.10;99.90;;;;;;5055283;28;20132;-67
2022/12/06 01:26:28;;;;;;;0.95;0.60;;;4.10;99.90;;;;;;5055832;28;20521;-67
2022/12/06 01:28:54;;;;;;;;;;;4.10;99.90;;;;;;5055430;28;20033;-68
2022/12/06 01:31:20;;;;;;;0.93;0.70;;;4.10;99.90;;;;;;5055801;28;19911;-67
2022/12/06 01:33:46;;;;;;;0.60;0.60;;;4.10;99.90;;;;;;5054922;28;20358;-67
2022/12/06 01:36:16;;;;;;;0.82;0.70;;;4.10;99.90;;;;;;5055498;28;20045;-67
2022/12/06 01:38:42;;;;;;;1.10;0.80;;;4.10;99.90;;;;;;5055047;28;20025;-67
2022/12/06 01:41:07;;;;;;;0.80;0.80;;;4.10;99.90;;;;;;5055469;28;20457;-67
2022/12/06 01:43:39;;;;;;;0.90;0.70;;;4.20;99.90;;;;;;5053968;28;20458;-74
2022/12/06 01:46:19;;;;;;;1.15;1.00;;;4.20;99.90;;;;;;5055441;28;20021;-68
2022/12/06 01:48:47;;;;;;;1.13;0.80;;;4.20;99.90;;;;;;5054880;28;20071;-68
2022/12/06 01:51:14;;;;;;;0.85;0.82;;;4.20;99.90;;;;;;5055317;28;20029;-67
2022/12/06 01:53:42;;;;;;;0.80;0.80;;;4.20;99.90;;;;;;5054828;28;20029;-69
2022/12/06 01:56:08;;;;;;;1.25;1.10;;;4.20;99.90;;;;;;5055207;28;20104;-67
2022/12/06 01:58:37;;;;;;;0.93;0.93;;;4.20;99.90;;;;;;5054983;28;20104;-70
2022/12/06 02:01:03;;;;;;;1.05;0.95;;;4.30;99.90;;;;;;5054399;28;20029;-68
2022/12/06 02:03:32;;;;;;;1.02;0.80;;;4.20;99.90;;;;;;5055079;28;20139;-68
2022/12/06 02:05:59;;;;;;;1.08;0.98;;;4.30;99.90;;;;;;5054418;28;20065;-69
2022/12/06 02:08:26;;;;;;;0.88;0.88;;;4.30;99.90;;;;;;5054576;28;20029;-69
2022/12/06 02:10:52;;;;;;;1.58;1.00;;;4.30;99.90;;;;;;5053937;28;20021;-69
2022/12/06 02:13:19;;;;;;;1.00;0.90;;;4.30;99.90;;;;;;5054687;28;20102;-67
2022/12/06 02:15:50;;;;;;;0.63;0.60;;;4.30;99.90;;;;;;5054062;28;20095;-67
2022/12/06 02:18:27;;;;;;;1.58;1.42;;;4.30;99.90;;;;;;5054931;28;20021;-67
2022/12/06 02:21:03;;;;;;;1.98;0.90;;;4.30;99.90;;;;;;5054430;28;20029;-67
2022/12/06 02:23:40;;;;;;;0.95;0.82;;;4.30;99.90;;;;;;5054783;28;20524;-67
2022/12/06 02:26:11;;;;;;;0.70;0.70;;;4.30;99.90;;;;;;5054671;28;20025;-67
2022/12/06 02:28:43;;;;;;;;;;;4.30;99.90;;;;;;5054569;28;20045;-73
2022/12/06 02:31:13;;;;;;;;;;;4.30;99.90;;;;;;5054905;28;19927;-67
2022/12/06 02:34:01;;;;;;;2.27;0.90;;;4.40;99.90;;;;;;5054214;28;19912;-68
2022/12/06 02:36:33;;;;;;;0.90;0.77;;;4.30;99.90;;;;;;5054024;28;20222;-67
2022/12/06 02:39:24;;;;;;;0.57;0.57;;;4.30;99.90;;;;;;5052738;28;20045;-67
2022/12/06 02:42:04;;;;;;;1.02;0.70;;;4.30;99.90;;;;;;5053652;28;20032;-67
2022/12/06 02:44:37;;;;;;;0.82;0.82;;;4.30;99.90;;;;;;5054325;28;20047;-67
2022/12/06 02:47:07;;;;;;;0.70;0.70;;;4.40;99.90;;;;;;5053695;28;20033;-67
2022/12/06 02:49:35;;;;;;;2.47;0.60;;;4.40;99.90;;;;;;5054220;28;20091;-67
2022/12/06 02:52:02;;;;;;;0.50;0.50;;;4.40;99.90;;;;;;5053743;28;20025;-67
2022/12/06 02:54:28;;;;;;;0.55;0.55;;;4.40;99.90;;;;;;5054006;28;20029;-67
2022/12/06 02:56:54;;;;;;;0.50;0.50;;;4.40;99.90;;;;;;5053800;28;20033;-67
2022/12/06 02:59:20;;;;;;;0.45;0.45;;;4.40;99.90;;;;;;5053862;28;20457;-66
2022/12/06 03:01:52;;;;;;;0.45;0.45;;;4.50;99.90;;;;;;5053410;28;20159;-67
2022/12/06 03:04:30;;;;;;;1.42;0.50;;;4.50;99.90;;;;;;5053492;28;20028;-68
2022/12/06 03:07:23;;;;;;;0.43;0.43;;;4.50;99.90;;;;;;5052209;28;20025;-68
2022/12/06 03:10:15;;;;;;;0.50;0.50;;;4.60;99.90;;;;;;5053200;28;20029;-68
2022/12/06 03:13:00;;;;;;;0.60;0.60;;;4.60;99.90;;;;;;5053756;28;20036;-73
2022/12/06 03:15:34;;;;;;;0.70;0.70;;;4.50;99.90;;;;;;5053403;28;20434;-68
2022/12/06 03:18:18;;;;;;;0.60;0.60;;;4.50;99.90;;;;;;5053274;28;20028;-68
2022/12/06 03:20:55;;;;;;;0.80;0.80;;;4.50;99.90;;;;;;5053238;28;20025;-69
2022/12/06 03:23:25;;;;;;;0.60;0.60;;;4.50;99.90;;;;;;5052872;28;20028;-68
2022/12/06 03:25:54;;;;;;;0.75;0.70;;;4.50;99.90;;;;;;5052964;28;20040;-68
2022/12/06 03:28:21;;;;;;;0.85;0.70;;;4.50;99.90;;;;;;5053504;28;20065;-68
2022/12/06 03:30:50;;;;;;;1.05;0.77;;;4.50;99.90;;;;;;5051626;28;20032;-69
2022/12/06 03:33:21;;;;;;;0.80;0.80;;;4.50;99.90;;;;;;5052903;28;20033;-68
2022/12/06 03:35:49;;;;;;;0.63;0.63;;;4.50;99.90;;;;;;5052970;28;20061;-69
2022/12/06 03:38:32;;;;;;;0.70;0.70;;;4.50;99.90;;;;;;5051909;28;20143;-69
2022/12/06 03:41:03;;;;;;;0.85;0.82;;;4.50;99.90;;;;;;5053130;28;20032;-68
2022/12/06 03:43:29;;;;;;;;;;;4.50;99.90;;;;;;5053534;28;20047;-68
2022/12/06 03:46:06;;;;;;;0.80;0.80;;;4.50;99.90;;;;;;5052368;28;19909;-69
2022/12/06 03:48:38;;;;;;;1.13;0.90;;;4.50;99.90;;;;;;5053083;28;20033;-68
2022/12/06 03:51:07;;;;;;;0.80;0.80;;;4.50;99.90;;;;;;5051412;28;20207;-68
2022/12/06 03:53:33;;;;;;;1.85;1.17;;;4.50;99.90;;;;;;5052321;28;20029;-68
2022/12/06 03:55:59;;;;;;;1.02;0.93;;;4.50;99.90;;;;;;5052333;28;20199;-68
2022/12/06 03:58:25;;;;;;;1.20;1.10;;;4.60;99.90;;;;;;5052863;28;20060;-68
2022/12/06 04:00:50;;;;;;;1.17;1.08;;;4.50;99.90;;;;;;5052497;28;20441;-68
2022/12/06 04:03:16;;;;;;;1.23;1.13;;;4.60;99.90;;;;;;5052911;28;20021;-68
2022/12/06 04:05:42;;;;;;;1.40;1.30;;;4.60;99.90;;;;;;5052715;28;20039;-68
2022/12/06 04:08:07;;;;;;;1.10;1.00;;;4.60;99.90;;;;;;5052265;28;20033;-68
2022/12/06 04:10:34;;;;;;;1.70;1.23;;;4.60;99.90;;;;;;5052781;28;20029;-68
2022/12/06 04:12:59;;;;;;;2.75;1.40;;;4.60;99.90;;;;;;5052315;28;20021;-68
2022/12/06 04:15:27;;;;;;;1.35;1.25;;;4.70;99.90;;;;;;5052485;28;20025;-69
2022/12/06 04:18:12;;;;;;;1.58;1.25;;;4.70;99.90;;;;;;5052211;28;20032;-69
2022/12/06 04:23:29;;;;;;;1.65;1.02;;;4.80;99.90;;;;;;5052461;28;20114;-67
2022/12/06 04:25:55;;;;;;;1.75;1.60;;;4.80;99.90;;;;;;5051842;28;20067;-69
2022/12/06 04:39:19;;;;;;;1.20;1.10;;;4.90;99.90;;;;;;5052274;28;20106;-68
2022/12/06 04:44:29;;;;;;;1.23;1.13;;;4.90;99.90;;;;;;5052131;28;20032;-67
2022/12/06 04:46:54;;;;;;;1.42;1.20;;;5.00;99.90;;;;;;5050572;28;20029;-67
2022/12/06 04:49:20;;;;;;;1.15;1.00;;;5.00;99.90;;;;;;5052486;28;20048;-67
2022/12/06 04:51:46;;;;;;;1.67;1.10;;;5.00;99.90;;;;;;5052173;28;20481;-67
2022/12/06 04:54:11;;;;;;;1.17;1.08;;;5.00;99.90;;;;;;5051792;28;20480;-68
2022/12/06 04:56:37;;;;;;;1.50;1.13;;;5.10;99.90;;;;;;5052103;28;20032;-67
2022/12/06 04:59:03;;;;;;;2.00;1.45;;;5.10;99.90;;;;;;5051332;28;20025;-67
2022/12/06 05:01:28;;;;;;;1.45;1.23;;;5.10;99.90;;;;;;5051795;28;20531;-67
2022/12/06 05:03:54;;;;;;;1.10;1.00;;;5.10;99.90;;;;;;5051493;28;20036;-68
2022/12/06 05:06:20;;;;;;;2.05;1.20;;;5.10;99.90;;;;;;5051616;28;20075;-67
2022/12/06 05:08:45;;;;;;;1.20;1.00;;;5.10;99.90;;;;;;5051974;28;20033;-67
2022/12/06 05:11:12;;;;;;;1.42;1.20;;;5.10;99.90;;;;;;5051390;28;20390;-68
2022/12/06 05:13:38;;;;;;;1.58;1.20;;;5.10;99.90;;;;;;5051966;28;20108;-67
2022/12/06 05:16:05;;;;;;;1.30;1.20;;;5.10;99.90;;;;;;5051082;28;20107;-67
2022/12/06 05:18:32;;;;;;;1.20;1.10;;;5.10;99.90;;;;;;5051532;28;20037;-67
2022/12/06 05:21:04;;;;;;;1.55;1.10;;;5.10;99.90;;;;;;5051483;28;20112;-67
2022/12/06 05:23:30;;;;;;;0.95;0.80;;;5.10;99.90;;;;;;5051799;28;20079;-67
2022/12/06 05:25:58;;;;;;;1.35;1.00;;;5.20;99.90;;;;;;5051358;28;20025;-67
2022/12/06 05:28:24;;;;;;;1.20;1.10;;;5.20;99.90;;;;;;5051568;28;20378;-68
2022/12/06 05:30:49;;;;;;;1.20;1.00;;;5.20;99.90;;;;;;5051591;28;20032;-67
2022/12/06 05:33:15;;;;;;;1.10;0.98;;;5.20;99.90;;;;;;5051365;28;20067;-67
2022/12/06 05:35:40;;;;;;;1.10;1.00;;;5.20;99.90;;;;;;5051483;28;20494;-68
2022/12/06 05:38:06;;;;;;;0.93;0.80;;;5.20;99.90;;;;;;5051346;28;20101;-68
2022/12/06 05:40:32;;;;;;;1.00;0.90;;;5.20;99.90;;;;;;5051697;28;20104;-67
2022/12/06 05:42:57;;;;;;;1.35;0.85;;;5.20;99.90;;;;;;5050877;28;20108;-67
2022/12/06 05:45:23;;;;;;;1.10;1.00;;;5.20;99.90;;;;;;5052020;28;20104;-67
2022/12/06 05:47:48;;;;;;;1.08;0.98;;;5.30;99.90;;;;;;5069686;28;20457;-67
2022/12/06 05:50:14;;;;;;;1.30;1.20;;;5.30;99.90;;;;;;5075359;28;20150;-67
2022/12/06 05:52:40;;;;;;;1.65;1.00;;;5.30;99.90;;;;;;5073838;28;20020;-67
2022/12/06 05:55:07;;;;;;;1.02;0.93;;;5.30;99.90;;;;;;5075077;28;20033;-67
2022/12/06 05:57:32;;;;;;;1.13;0.98;;;5.30;99.90;;;;;;5072338;28;20032;-67
2022/12/06 05:59:58;;;;;;;1.10;1.00;;;5.30;99.90;;;;;;5054367;28;20027;-68
2022/12/06 06:02:24;;;;;;;1.10;1.00;;;5.30;99.90;;;;;;5054681;28;20104;-68
2022/12/06 06:04:49;;;;;;;1.15;1.00;;;5.30;99.90;;;;;;5054944;28;20326;-67
2022/12/06 06:07:15;;;;;;;2.05;1.40;;;5.30;99.90;;;;;;5068948;28;20105;-66
2022/12/06 06:09:40;;;;;;;3.20;1.35;;;5.30;99.90;;;;;;5074882;28;20056;-68
2022/12/06 06:12:06;;;;;;;1.40;1.10;;;5.30;99.90;;;;;;5074248;28;20017;-68
2022/12/06 06:14:32;;;;;;;2.83;1.30;;;5.20;99.90;;;;;;5069761;28;20393;-68
2022/12/06 06:16:57;;;;;;;1.83;1.55;;;5.30;99.90;;;;;;5054049;28;20146;-73
2022/12/06 06:19:23;;;;;;;1.92;1.40;;;5.30;99.90;;;;;;5054097;28;20048;-68
2022/12/06 06:21:49;;;;;;;2.00;1.42;;;5.30;99.90;;;;;;5054589;28;20466;-67
2022/12/06 06:24:15;;;;;;;2.28;1.83;;;5.30;99.90;;;;;;5054043;28;20135;-68
2022/12/06 06:26:40;;;;;;;1.67;1.48;;;5.30;99.90;;;;;;5054091;28;20362;-68
2022/12/06 06:29:06;;;;;;;1.25;1.15;;;5.30;99.90;;;;;;5054207;28;20060;-69
2022/12/06 06:31:32;;;;;;;1.90;1.70;;;5.30;99.90;;;;;;5054148;28;20025;-68
2022/12/06 06:33:57;;;;;;;1.52;1.40;;;5.30;99.90;;;;;;5054099;28;20029;-74
2022/12/06 06:36:23;;;;;;;2.78;1.60;;;5.30;99.90;;;;;;5053730;28;20072;-68
2022/12/06 06:38:49;;;;;;;3.17;1.95;;;5.20;99.90;;;;;;5054262;28;20041;-67
2022/12/06 06:41:15;;;;;;;3.00;2.35;;;5.20;99.90;;;;;;5053581;28;20029;-67
2022/12/06 06:43:41;;;;;;;4.43;1.55;;;5.20;99.90;;;;;;5054245;28;20036;-67
2022/12/06 06:46:07;;;;;;;1.88;1.75;;;5.20;99.90;;;;;;5053675;28;20370;-68
2022/12/06 06:48:35;;;;;;;2.30;1.67;;;5.20;99.90;;;;;;5053924;28;20110;-67
2022/12/06 06:51:09;;;;;;;2.45;2.20;;;5.20;99.90;;;;;;5053135;28;20111;-69
2022/12/06 06:53:36;;;;;;;2.30;2.03;;;5.10;99.90;;;;;;5053940;28;20111;-67
2022/12/06 06:56:02;;;;;;;2.20;2.00;;;5.10;99.90;;;;;;5052809;28;20029;-70
2022/12/06 06:58:27;;;;;;;2.10;1.85;;;5.10;99.90;;;;;;5052954;28;20033;-68
2022/12/06 07:00:59;;;;;;;2.30;1.90;;;5.10;99.90;;;;;;5051984;28;20029;-67
2022/12/06 07:03:25;;;;;;;;;;;5.10;99.90;;;;;;5050204;28;20020;-67
2022/12/06 07:05:59;;;;;;;1.92;1.52;;;5.10;99.90;;;;;;5052254;28;19956;-67
2022/12/06 07:08:26;;;;;;;3.95;2.45;;;5.10;99.90;;;;;;5049423;28;20031;-67
2022/12/06 07:10:53;;;;;;;2.63;1.95;;;5.10;99.90;;;;;;5051064;28;20051;-68
2022/12/06 07:13:21;;;;;;;4.72;2.17;;;5.10;99.90;;;;;;5052529;28;20524;-68
2022/12/06 07:15:47;;;;;;;6.45;2.55;;;5.10;99.90;;;;;;5051609;28;20162;-68
2022/12/06 07:18:12;;;;;;;2.80;2.20;;;5.00;99.90;;;;;;5051522;28;20029;-67
2022/12/06 07:20:38;;;;;;;2.85;2.20;;;5.00;99.90;;;;;;5051644;28;20476;-69
2022/12/06 07:23:04;;;;;;;2.10;1.90;;;5.00;99.90;;;;;;5051191;28;20386;-68
2022/12/06 07:25:31;;;;;;;2.30;2.10;;;5.00;99.90;;;;;;5051661;28;20028;-67
2022/12/06 07:27:57;;;;;;;2.33;2.13;;;4.90;99.90;;;;;;5052371;28;20072;-73
2022/12/06 07:30:23;;;;;;;2.28;1.98;;;5.00;99.90;;;;;;5052676;28;20036;-71
2022/12/06 07:32:48;;;;;;;1.77;1.65;;;4.90;99.90;;;;;;5057663;28;20036;-73
2022/12/06 07:35:14;;;;;;;3.35;2.40;;;5.00;99.90;;;;;;5053035;28;20033;-72
2022/12/06 07:37:44;;;;;;;3.22;2.45;;;4.90;99.90;;;;;;5052574;28;20037;-73
2022/12/06 07:40:11;;;;;;;2.75;2.50;;;4.90;99.90;;;;;;5052883;28;20098;-75
2022/12/06 07:45:20;;;;;;;3.38;2.67;;;4.90;99.90;;;;;;5055782;28;20028;-73
2022/12/06 07:47:46;;;;;;;3.03;2.50;;;4.90;99.90;;;;;;5055983;28;20021;-73
2022/12/06 07:50:14;;;;;;;3.75;2.33;;;4.90;99.90;;;;;;5052621;28;20474;-74
2022/12/06 07:52:40;;;;;;;2.70;2.40;;;4.90;99.90;;;;;;5052372;28;20457;-73
2022/12/06 07:55:08;;;;;;;2.17;1.95;;;4.90;99.90;;;;;;5053407;28;20035;-74
2022/12/06 07:57:34;;;;;;;2.67;2.20;;;4.90;99.90;;;;;;5051255;28;20033;-72
2022/12/06 07:59:59;;;;;;;2.58;2.10;;;5.00;99.90;;;;;;5066599;28;20464;-73
2022/12/06 08:02:26;;;;;;;3.13;2.30;;;5.00;99.90;;;;;;5067604;28;20067;-73
2022/12/06 08:04:53;;;;;;;3.47;2.47;;;5.00;99.90;;;;;;5050935;28;20373;-72
2022/12/06 08:07:20;;;;;;;2.83;2.50;;;5.00;99.90;;;;;;5052218;28;20086;-72
2022/12/06 08:09:46;;;;;;;4.43;2.65;;;5.00;99.90;;;;;;5059109;28;20069;-72
2022/12/06 08:12:12;;;;;;;6.15;2.58;;;5.00;99.90;;;;;;5060533;28;20078;-72
2022/12/06 08:14:38;;;;;;;4.28;2.40;;;5.00;99.90;;;;;;5052438;28;20041;-72
2022/12/06 08:17:05;;;;;;;3.35;2.42;;;5.00;99.90;;;;;;5051581;28;20044;-75
2022/12/06 08:19:31;;;;;;;4.30;2.63;;;4.90;99.90;;;;;;5052340;28;20052;-72
2022/12/06 08:21:56;;;;;;;4.30;2.65;;;5.00;99.90;;;;;;5051299;28;20432;-72
2022/12/06 08:24:22;;;;;;;3.53;2.63;;;5.00;99.90;;;;;;5051448;28;20021;-72
2022/12/06 08:26:49;;;;;;;2.90;2.58;;;5.00;99.90;;;;;;5051919;28;20062;-71
2022/12/06 08:29:15;;;;;;;4.15;2.72;;;5.00;99.90;;;;;;5051298;28;20094;-71
2022/12/06 08:31:42;;;;;;;2.85;2.47;;;5.00;99.90;;;;;;5052263;28;20063;-71
2022/12/06 08:34:08;;;;;;;4.95;2.80;;;5.00;99.90;;;;;;5050565;28;20029;-71
2022/12/06 08:36:36;;;;;;;3.70;2.45;;;4.90;99.90;;;;;;5051672;28;20412;-71
2022/12/06 08:39:02;;;;;;;4.07;2.85;;;5.00;99.90;;;;;;5052315;28;20113;-72
2022/12/06 08:44:13;;;;;;;6.20;2.78;;;4.90;99.90;;;;;;5051696;28;20098;-74
2022/12/06 08:46:39;;;;;;;3.58;2.47;;;4.90;99.90;;;;;;5051716;28;20025;-74
2022/12/06 08:49:05;;;;;;;3.55;2.35;;;4.90;99.90;;;;;;5052236;28;20025;-73
2022/12/06 08:51:33;;;;;;;5.50;2.25;;;5.00;99.90;;;;;;5051724;28;20029;-74
2022/12/06 08:53:58;;;;;;;4.05;2.70;;;5.00;99.90;;;;;;5052013;28;20025;-74
2022/12/06 08:56:25;;;;;;;3.50;2.20;;;5.00;99.90;;;;;;5051390;28;20033;-74
2022/12/06 08:58:55;;;;;;;3.45;2.17;;;4.90;99.90;;;;;;5052046;28;20032;-74
2022/12/06 09:01:26;;;;;;;2.47;2.28;;;5.00;99.90;;;;;;5050463;28;20017;-75
2022/12/06 09:03:52;;;;;;;4.50;2.47;;;5.00;99.90;;;;;;5052057;28;20459;-74
2022/12/06 09:06:19;;;;;;;5.22;2.78;;;5.00;99.90;;;;;;5051346;28;20033;-74
2022/12/06 09:08:45;;;;;;;3.58;2.33;;;5.00;99.90;;;;;;5051974;28;20078;-74
2022/12/06 09:11:11;;;;;;;4.57;2.33;;;5.00;99.90;;;;;;5051653;28;20029;-75
2022/12/06 09:13:37;;;;;;;4.18;2.70;;;5.00;99.90;;;;;;5051942;28;20127;-74
2022/12/06 09:16:19;;;;;;;3.70;2.72;;;5.00;99.90;;;;;;5051862;28;20029;-74
2022/12/06 09:18:44;;;;;;;5.75;3.25;;;5.00;99.90;;;;;;5051926;28;20033;-74
2022/12/06 09:21:20;;;;;;;5.05;3.20;;;5.00;99.90;;;;;;5053081;28;20036;-74
2022/12/06 09:23:46;;;;;;;5.03;3.25;;;5.00;99.90;;;;;;5055839;28;20029;-74
2022/12/06 09:26:12;;;;;;;4.18;3.10;;;5.00;99.90;;;;;;5054995;28;20040;-74
2022/12/06 09:28:40;;;;;;;3.92;3.20;;;4.90;99.90;;;;;;5055426;28;20036;-73
2022/12/06 09:31:07;;;;;;;4.47;3.42;;;4.90;99.90;;;;;;5055396;28;20064;-73
2022/12/06 09:33:34;;;;;;;7.10;3.90;;;5.00;99.90;;;;;;5053766;28;20033;-73
2022/12/06 09:36:04;;;;;;;4.38;3.60;;;5.00;99.90;;;;;;5055275;28;20139;-74
2022/12/06 09:38:33;;;;;;;4.13;3.42;;;5.00;99.90;;;;;;5054927;28;20120;-75
2022/12/06 09:41:13;;;;;;;3.85;2.70;;;5.00;99.90;;;;;;5055613;28;20091;-74
2022/12/06 09:44:08;;;;;;;4.70;3.40;;;5.00;99.90;;;;;;5055223;28;20029;-74
2022/12/06 09:46:51;;;;;;;3.80;2.80;;;5.00;99.90;;;;;;5045092;28;20151;-74
2022/12/06 09:49:30;;;;;;;3.35;2.97;;;5.00;99.90;;;;;;5054974;28;20025;-74
2022/12/06 09:52:14;;;;;;;4.47;3.45;;;5.00;99.90;;;;;;5055203;28;20036;-74
2022/12/06 09:54:48;;;;;;;6.63;3.45;;;5.00;99.90;;;;;;5055202;28;20473;-74
2022/12/06 09:57:55;;;;;;;5.70;3.55;;;5.00;99.90;;;;;;5054493;28;20032;-74
2022/12/06 10:00:22;;;;;;;4.65;3.05;;;5.00;99.90;;;;;;5043339;28;20052;-73
2022/12/06 10:03:02;;;;;;;4.70;3.03;;;5.10;99.90;;;;;;5054727;28;20528;-73
2022/12/06 10:05:35;;;;;;;4.80;3.40;;;5.00;99.90;;;;;;5054464;28;20355;-74
2022/12/06 10:08:07;;;;;;;6.75;2.88;;;5.00;99.90;;;;;;5054868;28;20110;-74
2022/12/06 10:10:58;;;;;;;5.22;3.00;;;5.10;99.90;;;;;;5054369;28;20033;-74
2022/12/06 10:13:44;;;;;;;5.00;3.80;;;5.20;99.90;;;;;;5054169;28;20537;-74
2022/12/06 10:16:10;;;;;;;7.68;3.28;;;5.20;99.90;;;;;;5054463;28;20517;-77
2022/12/06 10:18:47;;;;;;;4.68;3.10;;;5.30;99.90;;;;;;5053954;28;20105;-75
2022/12/06 10:21:33;;;;;;;5.60;3.42;;;5.30;99.90;;;;;;5053906;28;20147;-74
2022/12/06 10:24:08;;;;;;;4.47;3.58;;;5.40;99.90;;;;;;5054676;28;20207;-75
2022/12/06 10:26:34;;;;;;;4.10;3.20;;;5.50;99.90;;;;;;5053945;28;20048;-75
2022/12/06 10:28:59;;;;;;;4.22;3.47;;;5.60;99.90;;;;;;5054179;28;20020;-75
2022/12/06 10:31:51;;;;;;;4.15;3.45;;;5.70;99.90;;;;;;5053728;28;20025;-75
2022/12/06 10:34:27;;;;;;;3.85;3.20;;;5.80;99.90;;;;;;5052446;28;20106;-75
2022/12/06 10:37:06;;;;;;;4.65;3.38;;;5.90;99.90;;;;;;5054304;28;20473;-75
2022/12/06 10:40:07;;;;;;;6.80;4.07;;;6.00;99.90;;;;;;5053874;28;20139;-75
2022/12/06 10:42:41;;;;;;;5.57;4.03;;;6.00;99.90;;;;;;5034092;28;20137;-73
2022/12/06 10:48:44;;;;;;;7.07;4.90;;;6.10;99.90;;;;;;5053808;28;20048;-74
2022/12/06 10:51:17;;;;;;;6.38;4.70;;;6.20;99.90;;;;;;5048867;28;20045;-73
2022/12/06 10:53:50;;;;;;;5.72;4.47;;;6.30;99.90;;;;;;5052327;28;20025;-73
2022/12/06 10:56:39;;;;;;;7.45;5.22;;;6.30;99.90;;;;;;5053416;28;20489;-74
2022/12/06 10:59:25;;;;;;;8.15;5.65;;;6.30;99.90;;;;;;5053823;28;20025;-74
2022/12/06 11:01:53;;;;;;;8.85;5.85;;;6.30;99.90;;;;;;5053743;28;20070;-74
2022/12/06 11:04:26;;;;;;;9.15;5.72;;;6.40;99.90;;;;;;5053378;28;20017;-74
2022/12/06 11:06:57;;;;;;;10.02;7.00;;;6.40;99.90;;;;;;5053531;28;20124;-74
2022/12/06 11:09:41;;;;;;;9.30;6.90;;;6.40;99.90;;;;;;5053845;28;20021;-75
2022/12/06 11:12:26;;;;;;;9.70;7.38;;;6.40;99.90;;;;;;5054184;28;20047;-74
2022/12/06 11:15:22;;;;;;;11.60;7.75;;;6.40;99.90;;;;;;5053612;28;20029;-75
2022/12/06 11:17:52;;;;;;;11.32;8.40;;;6.30;99.90;;;;;;5053187;28;20040;-74
2022/12/06 11:20:24;;;;;;;13.07;8.88;;;6.30;99.90;;;;;;5052971;28;20075;-75
2022/12/06 11:23:05;;;;;;;12.13;8.93;;;6.20;99.90;;;;;;5053416;28;20025;-74
2022/12/06 11:25:39;;;;;;;13.40;8.50;;;6.10;99.90;;;;;;5052977;28;20029;-74
2022/12/06 11:28:31;;;;;;;12.88;9.40;;;6.00;99.90;;;;;;5053358;28;20025;-74
2022/12/06 11:30:57;;;;;;;13.10;9.07;;;6.00;99.90;;;;;;5050111;28;20029;-74
2022/12/06 11:33:33;;;;;;;13.30;9.15;;;6.00;99.90;;;;;;5052800;28;20029;-75
2022/12/06 11:36:02;;;;;;;13.95;9.45;;;6.00;99.90;;;;;;5052993;28;20056;-75
2022/12/06 11:38:29;;;;;;;14.25;10.00;;;6.00;99.90;;;;;;5052739;28;20040;-75
2022/12/06 11:40:56;;;;;;;11.73;8.75;;;6.10;99.90;;;;;;5053244;28;20025;-75
2022/12/06 11:43:31;;;;;;;15.45;9.30;;;6.10;99.90;;;;;;5052241;28;20144;-75
2022/12/06 11:45:57;;;;;;;12.65;8.73;;;6.20;99.90;;;;;;5053046;28;20036;-74
2022/12/06 11:48:25;;;;;;;13.07;9.27;;;6.20;99.90;;;;;;5052183;28;20112;-74
2022/12/06 11:50:52;;;;;;;13.02;8.82;;;6.20;99.90;;;;;;5052889;28;20033;-75
2022/12/06 11:53:29;;;;;;;11.07;8.32;;;6.20;99.90;;;;;;5052305;28;20029;-76
2022/12/06 11:56:02;;;;;;;11.13;8.70;;;6.20;99.90;;;;;;5052984;28;20115;-73
2022/12/06 11:59:08;;;;;;;13.18;8.23;;;6.10;99.90;;;;;;5052758;28;20025;-74
2022/12/06 12:01:43;;;;;;;10.55;7.75;;;6.10;99.90;;;;;;5048126;28;20127;-74
2022/12/06 12:04:23;;;;;;;13.63;8.70;;;6.00;99.90;;;;;;5052997;28;20035;-74
2022/12/06 12:07:04;;;;;;;12.65;8.32;;;6.00;99.90;;;;;;5052176;28;20369;-74
2022/12/06 12:09:34;;;;;;;15.82;9.77;;;6.00;99.90;;;;;;5051041;28;20433;-74
2022/12/06 12:12:15;;;;;;;13.43;9.00;;;6.00;99.90;;;;;;5052560;28;20052;-74
2022/12/06 12:14:41;;;;;;;13.82;9.68;;;6.00;99.90;;;;;;5052024;28;20545;-74
2022/12/06 12:17:19;;;;;;;20.80;11.40;;;6.00;99.90;;;;;;5052379;28;20120;-74
2022/12/06 12:19:50;;;;;;;19.35;10.15;;;6.10;99.90;;;;;;5052759;28;20091;-74
2022/12/06 12:22:41;;;;;;;18.13;10.13;;;6.10;99.90;;;;;;5052605;28;20071;-74
2022/12/06 12:25:18;;;;;;;14.48;9.73;;;6.20;99.90;;;;;;5052656;28;20381;-75
2022/12/06 12:27:55;;;;;;;17.30;10.93;;;6.20;99.90;;;;;;5050579;28;20452;-74
2022/12/06 12:30:36;;;;;;;15.02;10.07;;;6.20;99.90;;;;;;5052040;28;20025;-75
2022/12/06 12:33:05;;;;;;;13.77;9.35;;;6.20;99.90;;;;;;5051222;28;20460;-74
2022/12/06 12:35:32;;;;;;;18.27;10.07;;;6.30;99.90;;;;;;5050259;28;20025;-74
2022/12/06 12:38:18;;;;;;;13.73;10.05;;;6.30;99.90;;;;;;5052363;28;20033;-74
2022/12/06 12:40:53;;;;;;;14.98;9.88;;;6.30;99.90;;;;;;5030518;28;20091;-73
2022/12/06 12:43:35;;;;;;;13.63;9.13;;;6.30;99.90;;;;;;5052184;28;20087;-75
2022/12/06 12:46:21;;;;;;;13.35;9.20;;;6.40;99.90;;;;;;5051934;28;20033;-74
2022/12/06 12:48:49;;;;;;;11.63;9.02;;;6.40;99.90;;;;;;5051577;28;20535;-74
2022/12/06 12:51:22;;;;;;;14.90;9.27;;;6.30;99.90;;;;;;5052149;28;20029;-74
2022/12/06 12:54:04;;;;;;;14.82;8.57;;;6.40;99.90;;;;;;5052012;28;20029;-74
2022/12/06 12:56:37;;;;;;;11.38;8.43;;;6.40;99.90;;;;;;5055462;28;20029;-75
2022/12/06 12:59:13;;;;;;;10.70;8.05;;;6.40;99.90;;;;;;5055939;28;20029;-74
2022/12/06 13:02:08;;;;;;;9.80;7.78;;;6.40;99.90;;;;;;5055513;28;20025;-74
2022/12/06 13:04:59;;;;;;;12.80;7.93;;;6.50;99.90;;;;;;5055590;28;20385;-74
2022/12/06 13:07:33;;;;;;;10.23;7.38;;;6.50;99.90;;;;;;5055559;28;20029;-74
2022/12/06 13:10:16;;;;;;;9.35;6.80;;;6.60;99.90;;;;;;5056175;28;20029;-74
2022/12/06 13:12:49;;;;;;;9.00;6.57;;;6.70;98.20;;;;;;5055553;28;20021;-74
2022/12/06 13:15:38;;;;;;;11.85;5.70;;;6.70;96.60;;;;;;5055732;28;20017;-74
2022/12/06 13:18:17;;;;;;;9.15;7.07;;;6.80;96.20;;;;;;5055788;28;20399;-75
2022/12/06 13:20:44;;;;;;;11.95;7.38;;;6.90;95.40;;;;;;5055482;28;20029;-75
2022/12/06 13:23:19;;;;;;;8.95;6.63;;;6.90;94.80;;;;;;5055974;28;20029;-74
2022/12/06 13:26:15;;;;;;;10.82;7.45;;;6.90;95.00;;;;;;5055300;28;20051;-74
2022/12/06 13:28:47;;;;;;;10.27;5.88;;;6.90;94.60;;;;;;5055161;28;20031;-74
2022/12/06 13:31:20;;;;;;;7.90;6.10;;;7.00;93.80;;;;;;5054347;28;20028;-74
2022/12/06 13:34:24;;;;;;;10.57;6.82;;;7.00;93.00;;;;;;5055278;28;20029;-74
2022/12/06 13:36:51;;;;;;;8.60;6.90;;;7.00;93.00;;;;;;5035245;28;20049;-74
2022/12/06 13:39:32;;;;;;;9.38;6.65;;;7.00;93.10;;;;;;5055165;28;20469;-74